< < Back
Terminal Aerodrome Forecast


Current Version              Previous Versions:   1  2  3  4  5  6  7  8  9  

Terminal Aerodrome Forecast

693
FTUS42 KTAE 281700
TAFABY
TAF
KABY 281733Z 2818/2918 07008KT P6SM SKC
     FM290000 00000KT P6SM SKC
     FM291400 14006KT P6SM SKC=



Latest METAR

091
SAUS70 KWBC 291000 RRQ
MTRABY
METAR KABY 290953Z AUTO 00000KT 7SM CLR 00/M02 A3035 RMK AO2 SLP276
T00001017 FZRANO


USA.gov is the U.S. government's official web portal to all federal, state and local government web resources and services.